sensor_id;sensor_type;location;lat;lon;timestamp;P1;durP1;ratioP1;P2;durP2;ratioP2
25381;SDS011;16307;42.896;20.874;2022-11-20T00:00:25;24.23;;;13.68;;
25381;SDS011;16307;42.896;20.874;2022-11-20T00:03:12;26.52;;;13.77;;
25381;SDS011;16307;42.896;20.874;2022-11-20T00:06:02;25.58;;;14.02;;
25381;SDS011;16307;42.896;20.874;2022-11-20T00:08:49;25.10;;;14.02;;
25381;SDS011;16307;42.896;20.874;2022-11-20T00:11:35;22.77;;;12.82;;
25381;SDS011;16307;42.896;20.874;2022-11-20T00:14:21;20.70;;;12.40;;
25381;SDS011;16307;42.896;20.874;2022-11-20T00:17:07;25.83;;;12.20;;
25381;SDS011;16307;42.896;20.874;2022-11-20T00:19:53;22.75;;;11.10;;
25381;SDS011;16307;42.896;20.874;2022-11-20T00:22:38;13.82;;;8.18;;
25381;SDS011;16307;42.896;20.874;2022-11-20T00:25:25;14.68;;;7.65;;
25381;SDS011;16307;42.896;20.874;2022-11-20T00:28:11;13.02;;;6.53;;
25381;SDS011;16307;42.896;20.874;2022-11-20T00:31:02;10.80;;;5.68;;
25381;SDS011;16307;42.896;20.874;2022-11-20T00:33:50;15.25;;;5.97;;
25381;SDS011;16307;42.896;20.874;2022-11-20T00:36:36;10.55;;;4.78;;
25381;SDS011;16307;42.896;20.874;2022-11-20T00:39:22;11.68;;;4.95;;
25381;SDS011;16307;42.896;20.874;2022-11-20T00:42:08;11.10;;;5.00;;
25381;SDS011;16307;42.896;20.874;2022-11-20T00:44:54;10.60;;;4.90;;
25381;SDS011;16307;42.896;20.874;2022-11-20T00:47:40;11.70;;;4.65;;
25381;SDS011;16307;42.896;20.874;2022-11-20T00:50:26;9.38;;;4.30;;
25381;SDS011;16307;42.896;20.874;2022-11-20T00:53:12;10.13;;;5.07;;
25381;SDS011;16307;42.896;20.874;2022-11-20T00:55:59;8.30;;;4.45;;
25381;SDS011;16307;42.896;20.874;2022-11-20T00:58:47;7.43;;;3.92;;
25381;SDS011;16307;42.896;20.874;2022-11-20T01:01:33;5.50;;;2.53;;
25381;SDS011;16307;42.896;20.874;2022-11-20T01:04:19;10.45;;;3.58;;
25381;SDS011;16307;42.896;20.874;2022-11-20T01:07:05;11.55;;;4.03;;
25381;SDS011;16307;42.896;20.874;2022-11-20T01:09:51;8.32;;;4.13;;
25381;SDS011;16307;42.896;20.874;2022-11-20T01:12:37;7.32;;;3.40;;
25381;SDS011;16307;42.896;20.874;2022-11-20T01:15:23;6.03;;;3.30;;
25381;SDS011;16307;42.896;20.874;2022-11-20T01:18:09;8.55;;;3.85;;
25381;SDS011;16307;42.896;20.874;2022-11-20T01:20:55;11.02;;;4.60;;
25381;SDS011;16307;42.896;20.874;2022-11-20T01:23:41;7.50;;;3.88;;
25381;SDS011;16307;42.896;20.874;2022-11-20T01:26:29;8.15;;;4.00;;
25381;SDS011;16307;42.896;20.874;2022-11-20T01:29:26;8.35;;;3.78;;
25381;SDS011;16307;42.896;20.874;2022-11-20T01:32:12;8.20;;;3.63;;
25381;SDS011;16307;42.896;20.874;2022-11-20T01:34:58;10.60;;;4.07;;
25381;SDS011;16307;42.896;20.874;2022-11-20T01:37:43;12.38;;;4.18;;
25381;SDS011;16307;42.896;20.874;2022-11-20T01:40:29;9.88;;;4.07;;
25381;SDS011;16307;42.896;20.874;2022-11-20T01:43:19;7.10;;;3.28;;
25381;SDS011;16307;42.896;20.874;2022-11-20T01:46:15;9.48;;;3.22;;
25381;SDS011;16307;42.896;20.874;2022-11-20T01:52:16;9.25;;;3.47;;
25381;SDS011;16307;42.896;20.874;2022-11-20T01:55:12;7.85;;;3.25;;
25381;SDS011;16307;42.896;20.874;2022-11-20T01:58:01;7.55;;;3.47;;
25381;SDS011;16307;42.896;20.874;2022-11-20T02:00:47;7.25;;;2.92;;
25381;SDS011;16307;42.896;20.874;2022-11-20T02:03:33;10.05;;;4.22;;
25381;SDS011;16307;42.896;20.874;2022-11-20T02:06:27;8.25;;;4.45;;
25381;SDS011;16307;42.896;20.874;2022-11-20T02:09:15;7.68;;;4.35;;
25381;SDS011;16307;42.896;20.874;2022-11-20T02:12:01;7.57;;;3.65;;
25381;SDS011;16307;42.896;20.874;2022-11-20T02:14:49;6.22;;;3.13;;
25381;SDS011;16307;42.896;20.874;2022-11-20T02:17:35;3.72;;;2.00;;
25381;SDS011;16307;42.896;20.874;2022-11-20T02:20:21;5.88;;;2.17;;
25381;SDS011;16307;42.896;20.874;2022-11-20T02:26:09;3.28;;;1.50;;
25381;SDS011;16307;42.896;20.874;2022-11-20T02:28:57;5.15;;;1.60;;
25381;SDS011;16307;42.896;20.874;2022-11-20T02:31:44;3.97;;;1.30;;
25381;SDS011;16307;42.896;20.874;2022-11-20T02:34:30;5.50;;;1.40;;
25381;SDS011;16307;42.896;20.874;2022-11-20T02:37:17;3.95;;;1.70;;
25381;SDS011;16307;42.896;20.874;2022-11-20T02:40:04;2.25;;;1.25;;
25381;SDS011;16307;42.896;20.874;2022-11-20T02:42:57;1.88;;;1.25;;
25381;SDS011;16307;42.896;20.874;2022-11-20T02:45:43;1.98;;;1.10;;
25381;SDS011;16307;42.896;20.874;2022-11-20T02:48:29;1.35;;;1.13;;
25381;SDS011;16307;42.896;20.874;2022-11-20T02:51:18;3.10;;;1.13;;
25381;SDS011;16307;42.896;20.874;2022-11-20T02:54:04;2.00;;;1.20;;
25381;SDS011;16307;42.896;20.874;2022-11-20T02:56:51;1.45;;;0.70;;
25381;SDS011;16307;42.896;20.874;2022-11-20T02:59:37;1.95;;;0.73;;
25381;SDS011;16307;42.896;20.874;2022-11-20T03:02:23;0.93;;;0.80;;
25381;SDS011;16307;42.896;20.874;2022-11-20T03:05:09;2.70;;;0.65;;
25381;SDS011;16307;42.896;20.874;2022-11-20T03:07:55;2.67;;;0.70;;
25381;SDS011;16307;42.896;20.874;2022-11-20T03:10:41;3.67;;;0.73;;
25381;SDS011;16307;42.896;20.874;2022-11-20T03:13:28;1.08;;;0.50;;
25381;SDS011;16307;42.896;20.874;2022-11-20T03:16:15;2.50;;;0.90;;
25381;SDS011;16307;42.896;20.874;2022-11-20T03:19:02;2.05;;;0.50;;
25381;SDS011;16307;42.896;20.874;2022-11-20T03:21:49;0.90;;;0.70;;
25381;SDS011;16307;42.896;20.874;2022-11-20T03:24:35;1.65;;;0.80;;
25381;SDS011;16307;42.896;20.874;2022-11-20T03:27:21;3.47;;;0.70;;
25381;SDS011;16307;42.896;20.874;2022-11-20T03:30:07;1.27;;;0.55;;
25381;SDS011;16307;42.896;20.874;2022-11-20T03:32:54;2.63;;;0.80;;
25381;SDS011;16307;42.896;20.874;2022-11-20T03:35:40;2.50;;;0.85;;
25381;SDS011;16307;42.896;20.874;2022-11-20T03:38:28;2.55;;;1.83;;
25381;SDS011;16307;42.896;20.874;2022-11-20T03:41:25;4.55;;;2.17;;
25381;SDS011;16307;42.896;20.874;2022-11-20T03:44:13;4.82;;;1.50;;
25381;SDS011;16307;42.896;20.874;2022-11-20T03:46:59;3.55;;;1.48;;
25381;SDS011;16307;42.896;20.874;2022-11-20T03:49:45;5.55;;;1.75;;
25381;SDS011;16307;42.896;20.874;2022-11-20T03:52:31;2.35;;;1.23;;
25381;SDS011;16307;42.896;20.874;2022-11-20T03:55:17;5.68;;;1.67;;
25381;SDS011;16307;42.896;20.874;2022-11-20T03:58:03;2.85;;;1.40;;
25381;SDS011;16307;42.896;20.874;2022-11-20T04:00:49;2.63;;;1.50;;
25381;SDS011;16307;42.896;20.874;2022-11-20T04:03:35;5.03;;;1.90;;
25381;SDS011;16307;42.896;20.874;2022-11-20T04:06:23;5.20;;;2.03;;
25381;SDS011;16307;42.896;20.874;2022-11-20T04:09:20;5.38;;;1.77;;
25381;SDS011;16307;42.896;20.874;2022-11-20T04:12:06;4.70;;;1.95;;
25381;SDS011;16307;42.896;20.874;2022-11-20T04:14:52;3.17;;;1.42;;
25381;SDS011;16307;42.896;20.874;2022-11-20T04:17:38;3.28;;;1.55;;
25381;SDS011;16307;42.896;20.874;2022-11-20T04:20:24;3.05;;;1.50;;
25381;SDS011;16307;42.896;20.874;2022-11-20T04:23:10;3.80;;;1.42;;
25381;SDS011;16307;42.896;20.874;2022-11-20T04:26:00;2.50;;;1.42;;
25381;SDS011;16307;42.896;20.874;2022-11-20T04:28:47;2.95;;;1.52;;
25381;SDS011;16307;42.896;20.874;2022-11-20T04:31:33;4.00;;;2.00;;
25381;SDS011;16307;42.896;20.874;2022-11-20T04:34:20;6.82;;;2.28;;
25381;SDS011;16307;42.896;20.874;2022-11-20T04:37:06;7.28;;;1.95;;
25381;SDS011;16307;42.896;20.874;2022-11-20T04:39:52;5.07;;;2.40;;
25381;SDS011;16307;42.896;20.874;2022-11-20T04:42:38;7.60;;;2.42;;
25381;SDS011;16307;42.896;20.874;2022-11-20T04:45:24;10.48;;;3.22;;
25381;SDS011;16307;42.896;20.874;2022-11-20T04:48:10;8.52;;;3.30;;
25381;SDS011;16307;42.896;20.874;2022-11-20T04:50:56;8.63;;;3.78;;
25381;SDS011;16307;42.896;20.874;2022-11-20T04:53:42;6.13;;;2.40;;
25381;SDS011;16307;42.896;20.874;2022-11-20T04:56:28;7.55;;;2.55;;
25381;SDS011;16307;42.896;20.874;2022-11-20T04:59:14;6.18;;;2.70;;
25381;SDS011;16307;42.896;20.874;2022-11-20T05:02:00;5.50;;;2.58;;
25381;SDS011;16307;42.896;20.874;2022-11-20T05:04:46;5.90;;;2.80;;
25381;SDS011;16307;42.896;20.874;2022-11-20T05:07:32;6.53;;;3.10;;
25381;SDS011;16307;42.896;20.874;2022-11-20T05:10:18;6.05;;;3.15;;
25381;SDS011;16307;42.896;20.874;2022-11-20T05:13:04;6.88;;;2.38;;
25381;SDS011;16307;42.896;20.874;2022-11-20T05:15:50;5.97;;;2.00;;
25381;SDS011;16307;42.896;20.874;2022-11-20T05:18:36;3.85;;;1.67;;
25381;SDS011;16307;42.896;20.874;2022-11-20T05:21:22;7.25;;;2.20;;
25381;SDS011;16307;42.896;20.874;2022-11-20T05:24:08;4.53;;;2.55;;
25381;SDS011;16307;42.896;20.874;2022-11-20T05:26:54;4.90;;;3.15;;
25381;SDS011;16307;42.896;20.874;2022-11-20T05:29:40;6.05;;;3.10;;
25381;SDS011;16307;42.896;20.874;2022-11-20T05:32:26;3.92;;;2.28;;
25381;SDS011;16307;42.896;20.874;2022-11-20T05:35:12;5.32;;;2.25;;
25381;SDS011;16307;42.896;20.874;2022-11-20T05:37:58;3.88;;;2.00;;
25381;SDS011;16307;42.896;20.874;2022-11-20T05:40:44;5.25;;;1.77;;
25381;SDS011;16307;42.896;20.874;2022-11-20T05:43:31;3.92;;;1.40;;
25381;SDS011;16307;42.896;20.874;2022-11-20T05:46:20;3.25;;;1.10;;
25381;SDS011;16307;42.896;20.874;2022-11-20T05:49:13;6.15;;;2.28;;
25381;SDS011;16307;42.896;20.874;2022-11-20T05:51:59;8.73;;;4.32;;
25381;SDS011;16307;42.896;20.874;2022-11-20T05:54:45;6.93;;;3.83;;
25381;SDS011;16307;42.896;20.874;2022-11-20T05:57:31;9.38;;;2.92;;
25381;SDS011;16307;42.896;20.874;2022-11-20T06:00:17;4.70;;;2.97;;
25381;SDS011;16307;42.896;20.874;2022-11-20T06:03:03;10.65;;;5.68;;
25381;SDS011;16307;42.896;20.874;2022-11-20T06:05:49;16.80;;;11.20;;
25381;SDS011;16307;42.896;20.874;2022-11-20T06:08:35;6.10;;;3.45;;
25381;SDS011;16307;42.896;20.874;2022-11-20T06:11:21;6.10;;;2.90;;
25381;SDS011;16307;42.896;20.874;2022-11-20T06:14:07;6.57;;;2.40;;
25381;SDS011;16307;42.896;20.874;2022-11-20T06:16:53;2.95;;;1.55;;
25381;SDS011;16307;42.896;20.874;2022-11-20T06:19:39;3.67;;;1.02;;
25381;SDS011;16307;42.896;20.874;2022-11-20T06:22:25;4.10;;;1.42;;
25381;SDS011;16307;42.896;20.874;2022-11-20T06:25:11;5.70;;;2.08;;
25381;SDS011;16307;42.896;20.874;2022-11-20T06:27:57;4.22;;;1.17;;
25381;SDS011;16307;42.896;20.874;2022-11-20T06:30:44;6.43;;;1.48;;
25381;SDS011;16307;42.896;20.874;2022-11-20T06:33:31;5.47;;;1.55;;
25381;SDS011;16307;42.896;20.874;2022-11-20T06:36:18;5.18;;;2.10;;
25381;SDS011;16307;42.896;20.874;2022-11-20T06:39:07;6.25;;;2.35;;
25381;SDS011;16307;42.896;20.874;2022-11-20T06:41:53;7.18;;;2.70;;
25381;SDS011;16307;42.896;20.874;2022-11-20T06:44:43;8.90;;;3.67;;
25381;SDS011;16307;42.896;20.874;2022-11-20T06:47:30;8.45;;;4.13;;
25381;SDS011;16307;42.896;20.874;2022-11-20T06:50:16;9.93;;;3.67;;
25381;SDS011;16307;42.896;20.874;2022-11-20T06:53:02;8.95;;;4.40;;
25381;SDS011;16307;42.896;20.874;2022-11-20T06:55:49;10.93;;;4.40;;
25381;SDS011;16307;42.896;20.874;2022-11-20T06:58:35;9.30;;;4.07;;
25381;SDS011;16307;42.896;20.874;2022-11-20T07:01:22;8.07;;;4.85;;
25381;SDS011;16307;42.896;20.874;2022-11-20T07:04:08;13.32;;;7.13;;
25381;SDS011;16307;42.896;20.874;2022-11-20T07:15:15;12.13;;;5.50;;
25381;SDS011;16307;42.896;20.874;2022-11-20T07:18:01;16.30;;;6.32;;
25381;SDS011;16307;42.896;20.874;2022-11-20T07:20:47;12.20;;;4.28;;
25381;SDS011;16307;42.896;20.874;2022-11-20T07:23:33;10.82;;;4.82;;
25381;SDS011;16307;42.896;20.874;2022-11-20T07:26:19;9.23;;;4.47;;
25381;SDS011;16307;42.896;20.874;2022-11-20T07:29:05;9.85;;;3.70;;
25381;SDS011;16307;42.896;20.874;2022-11-20T07:31:54;10.38;;;3.92;;
25381;SDS011;16307;42.896;20.874;2022-11-20T07:34:43;9.88;;;5.07;;
25381;SDS011;16307;42.896;20.874;2022-11-20T07:37:29;19.52;;;7.07;;
25381;SDS011;16307;42.896;20.874;2022-11-20T07:40:17;17.73;;;7.40;;
25381;SDS011;16307;42.896;20.874;2022-11-20T07:43:06;11.68;;;6.55;;
25381;SDS011;16307;42.896;20.874;2022-11-20T07:45:56;13.10;;;6.00;;
25381;SDS011;16307;42.896;20.874;2022-11-20T07:48:45;11.75;;;5.63;;
25381;SDS011;16307;42.896;20.874;2022-11-20T07:51:31;11.65;;;4.75;;
25381;SDS011;16307;42.896;20.874;2022-11-20T07:54:17;12.52;;;7.20;;
25381;SDS011;16307;42.896;20.874;2022-11-20T07:57:03;16.25;;;5.70;;
25381;SDS011;16307;42.896;20.874;2022-11-20T07:59:49;18.65;;;5.43;;
25381;SDS011;16307;42.896;20.874;2022-11-20T08:02:38;12.50;;;5.78;;
25381;SDS011;16307;42.896;20.874;2022-11-20T08:05:25;12.85;;;5.93;;
25381;SDS011;16307;42.896;20.874;2022-11-20T08:08:11;11.50;;;5.07;;
25381;SDS011;16307;42.896;20.874;2022-11-20T08:10:57;13.05;;;6.07;;
25381;SDS011;16307;42.896;20.874;2022-11-20T08:14:04;11.93;;;5.93;;
25381;SDS011;16307;42.896;20.874;2022-11-20T08:16:59;8.73;;;4.45;;
25381;SDS011;16307;42.896;20.874;2022-11-20T08:19:45;11.50;;;4.95;;
25381;SDS011;16307;42.896;20.874;2022-11-20T08:22:31;11.07;;;5.18;;
25381;SDS011;16307;42.896;20.874;2022-11-20T08:25:17;13.13;;;4.85;;
25381;SDS011;16307;42.896;20.874;2022-11-20T08:28:04;9.25;;;4.78;;
25381;SDS011;16307;42.896;20.874;2022-11-20T08:31:05;11.35;;;4.90;;
25381;SDS011;16307;42.896;20.874;2022-11-20T08:33:51;8.00;;;3.80;;
25381;SDS011;16307;42.896;20.874;2022-11-20T08:36:37;10.85;;;4.88;;
25381;SDS011;16307;42.896;20.874;2022-11-20T08:39:23;21.17;;;10.82;;
25381;SDS011;16307;42.896;20.874;2022-11-20T08:42:09;22.08;;;11.82;;
25381;SDS011;16307;42.896;20.874;2022-11-20T08:44:55;31.00;;;15.15;;
25381;SDS011;16307;42.896;20.874;2022-11-20T08:47:42;24.23;;;12.98;;
25381;SDS011;16307;42.896;20.874;2022-11-20T08:50:28;25.38;;;12.30;;
25381;SDS011;16307;42.896;20.874;2022-11-20T08:53:17;22.42;;;11.75;;
25381;SDS011;16307;42.896;20.874;2022-11-20T08:56:02;21.00;;;10.32;;
25381;SDS011;16307;42.896;20.874;2022-11-20T08:58:49;22.58;;;11.52;;
25381;SDS011;16307;42.896;20.874;2022-11-20T09:01:57;26.05;;;13.07;;
25381;SDS011;16307;42.896;20.874;2022-11-20T09:04:43;95.70;;;41.70;;
25381;SDS011;16307;42.896;20.874;2022-11-20T09:07:29;46.53;;;23.52;;
25381;SDS011;16307;42.896;20.874;2022-11-20T09:10:16;45.80;;;23.50;;
25381;SDS011;16307;42.896;20.874;2022-11-20T09:13:09;39.90;;;20.70;;
25381;SDS011;16307;42.896;20.874;2022-11-20T09:15:56;32.25;;;15.60;;
25381;SDS011;16307;42.896;20.874;2022-11-20T09:18:43;35.10;;;18.55;;
25381;SDS011;16307;42.896;20.874;2022-11-20T09:21:29;26.55;;;13.45;;
25381;SDS011;16307;42.896;20.874;2022-11-20T09:24:15;30.77;;;8.95;;
25381;SDS011;16307;42.896;20.874;2022-11-20T09:27:01;14.95;;;6.55;;
25381;SDS011;16307;42.896;20.874;2022-11-20T09:29:49;10.73;;;6.25;;
25381;SDS011;16307;42.896;20.874;2022-11-20T09:32:35;13.07;;;6.45;;
25381;SDS011;16307;42.896;20.874;2022-11-20T09:35:21;11.25;;;6.90;;
25381;SDS011;16307;42.896;20.874;2022-11-20T09:38:07;15.05;;;7.32;;
25381;SDS011;16307;42.896;20.874;2022-11-20T09:40:58;12.20;;;6.57;;
25381;SDS011;16307;42.896;20.874;2022-11-20T09:43:57;14.90;;;6.40;;
25381;SDS011;16307;42.896;20.874;2022-11-20T09:54:29;25.65;;;12.57;;
25381;SDS011;16307;42.896;20.874;2022-11-20T09:57:05;24.85;;;13.02;;
25381;SDS011;16307;42.896;20.874;2022-11-20T09:59:56;24.98;;;12.05;;
25381;SDS011;16307;42.896;20.874;2022-11-20T10:06:16;19.30;;;7.78;;
25381;SDS011;16307;42.896;20.874;2022-11-20T10:15:01;22.63;;;10.13;;
25381;SDS011;16307;42.896;20.874;2022-11-20T10:17:55;18.38;;;9.43;;
25381;SDS011;16307;42.896;20.874;2022-11-20T10:21:01;15.88;;;8.52;;
25381;SDS011;16307;42.896;20.874;2022-11-20T10:32:46;13.52;;;7.45;;
25381;SDS011;16307;42.896;20.874;2022-11-20T10:35:53;13.45;;;8.30;;
25381;SDS011;16307;42.896;20.874;2022-11-20T10:38:47;25.85;;;11.07;;
25381;SDS011;16307;42.896;20.874;2022-11-20T10:41:38;16.88;;;8.43;;
25381;SDS011;16307;42.896;20.874;2022-11-20T10:44:27;16.63;;;7.50;;
25381;SDS011;16307;42.896;20.874;2022-11-20T10:47:39;17.48;;;9.13;;
25381;SDS011;16307;42.896;20.874;2022-11-20T10:50:25;27.58;;;13.52;;
25381;SDS011;16307;42.896;20.874;2022-11-20T11:00:00;19.92;;;10.13;;
25381;SDS011;16307;42.896;20.874;2022-11-20T11:02:52;14.43;;;7.93;;
25381;SDS011;16307;42.896;20.874;2022-11-20T11:05:50;19.83;;;9.85;;
25381;SDS011;16307;42.896;20.874;2022-11-20T11:08:40;13.45;;;7.75;;
25381;SDS011;16307;42.896;20.874;2022-11-20T11:11:27;15.70;;;8.35;;
25381;SDS011;16307;42.896;20.874;2022-11-20T11:14:15;17.92;;;8.50;;
25381;SDS011;16307;42.896;20.874;2022-11-20T11:17:01;15.52;;;7.25;;
25381;SDS011;16307;42.896;20.874;2022-11-20T11:22:53;14.98;;;7.93;;
25381;SDS011;16307;42.896;20.874;2022-11-20T11:25:41;10.65;;;5.30;;
25381;SDS011;16307;42.896;20.874;2022-11-20T11:28:27;12.02;;;6.35;;
25381;SDS011;16307;42.896;20.874;2022-11-20T11:31:21;82.03;;;40.35;;
25381;SDS011;16307;42.896;20.874;2022-11-20T11:34:13;97.55;;;49.13;;
25381;SDS011;16307;42.896;20.874;2022-11-20T11:37:00;87.97;;;47.58;;
25381;SDS011;16307;42.896;20.874;2022-11-20T11:39:47;71.18;;;40.80;;
25381;SDS011;16307;42.896;20.874;2022-11-20T11:42:55;55.50;;;31.00;;
25381;SDS011;16307;42.896;20.874;2022-11-20T11:45:50;41.00;;;21.17;;
25381;SDS011;16307;42.896;20.874;2022-11-20T11:48:38;51.42;;;26.70;;
25381;SDS011;16307;42.896;20.874;2022-11-20T11:51:34;56.17;;;24.45;;
25381;SDS011;16307;42.896;20.874;2022-11-20T11:54:30;58.30;;;29.67;;
25381;SDS011;16307;42.896;20.874;2022-11-20T11:57:24;31.90;;;17.48;;
25381;SDS011;16307;42.896;20.874;2022-11-20T12:00:14;22.13;;;11.40;;
25381;SDS011;16307;42.896;20.874;2022-11-20T12:03:09;17.30;;;7.43;;
25381;SDS011;16307;42.896;20.874;2022-11-20T12:06:05;17.45;;;7.65;;
25381;SDS011;16307;42.896;20.874;2022-11-20T12:08:57;13.75;;;6.63;;
25381;SDS011;16307;42.896;20.874;2022-11-20T12:11:46;16.65;;;8.02;;
25381;SDS011;16307;42.896;20.874;2022-11-20T12:14:55;17.67;;;8.85;;
25381;SDS011;16307;42.896;20.874;2022-11-20T12:17:42;22.00;;;9.63;;
25381;SDS011;16307;42.896;20.874;2022-11-20T12:20:33;21.23;;;8.90;;
25381;SDS011;16307;42.896;20.874;2022-11-20T12:29:56;18.17;;;8.00;;
25381;SDS011;16307;42.896;20.874;2022-11-20T12:39:15;26.30;;;14.07;;
25381;SDS011;16307;42.896;20.874;2022-11-20T12:46:05;24.85;;;12.02;;
25381;SDS011;16307;42.896;20.874;2022-11-20T12:55:13;24.05;;;11.00;;
25381;SDS011;16307;42.896;20.874;2022-11-20T12:58:11;21.85;;;7.50;;
25381;SDS011;16307;42.896;20.874;2022-11-20T13:01:16;13.50;;;7.03;;
25381;SDS011;16307;42.896;20.874;2022-11-20T13:07:36;10.18;;;5.43;;
25381;SDS011;16307;42.896;20.874;2022-11-20T13:16:59;10.68;;;3.88;;
25381;SDS011;16307;42.896;20.874;2022-11-20T13:19:52;14.18;;;4.88;;
25381;SDS011;16307;42.896;20.874;2022-11-20T13:25:32;18.48;;;7.68;;
25381;SDS011;16307;42.896;20.874;2022-11-20T13:31:05;12.32;;;5.43;;
25381;SDS011;16307;42.896;20.874;2022-11-20T13:33:55;14.23;;;7.75;;
25381;SDS011;16307;42.896;20.874;2022-11-20T13:36:52;15.63;;;5.95;;
25381;SDS011;16307;42.896;20.874;2022-11-20T13:39:40;23.73;;;11.48;;
25381;SDS011;16307;42.896;20.874;2022-11-20T13:42:27;23.88;;;11.52;;
25381;SDS011;16307;42.896;20.874;2022-11-20T13:45:26;20.80;;;10.10;;
25381;SDS011;16307;42.896;20.874;2022-11-20T13:48:22;21.23;;;10.82;;
25381;SDS011;16307;42.896;20.874;2022-11-20T13:51:12;20.55;;;9.43;;
25381;SDS011;16307;42.896;20.874;2022-11-20T14:00:23;16.42;;;8.15;;
25381;SDS011;16307;42.896;20.874;2022-11-20T14:03:29;13.48;;;6.18;;
25381;SDS011;16307;42.896;20.874;2022-11-20T14:06:41;10.57;;;5.38;;
25381;SDS011;16307;42.896;20.874;2022-11-20T14:09:29;26.23;;;10.75;;
25381;SDS011;16307;42.896;20.874;2022-11-20T14:12:17;17.55;;;8.50;;
25381;SDS011;16307;42.896;20.874;2022-11-20T14:15:04;13.98;;;6.47;;
25381;SDS011;16307;42.896;20.874;2022-11-20T14:17:51;13.70;;;6.45;;
25381;SDS011;16307;42.896;20.874;2022-11-20T14:20:37;14.32;;;6.18;;
25381;SDS011;16307;42.896;20.874;2022-11-20T14:23:28;12.52;;;6.50;;
25381;SDS011;16307;42.896;20.874;2022-11-20T14:26:15;16.75;;;8.75;;
25381;SDS011;16307;42.896;20.874;2022-11-20T14:29:05;16.23;;;8.15;;
25381;SDS011;16307;42.896;20.874;2022-11-20T14:31:52;15.38;;;8.30;;
25381;SDS011;16307;42.896;20.874;2022-11-20T14:34:39;21.90;;;10.40;;
25381;SDS011;16307;42.896;20.874;2022-11-20T14:37:26;17.45;;;10.02;;
25381;SDS011;16307;42.896;20.874;2022-11-20T14:40:25;15.95;;;8.80;;
25381;SDS011;16307;42.896;20.874;2022-11-20T14:43:28;13.80;;;7.28;;
25381;SDS011;16307;42.896;20.874;2022-11-20T14:46:14;23.95;;;12.55;;
25381;SDS011;16307;42.896;20.874;2022-11-20T14:49:01;20.33;;;8.32;;
25381;SDS011;16307;42.896;20.874;2022-11-20T14:51:57;30.08;;;13.88;;
25381;SDS011;16307;42.896;20.874;2022-11-20T14:54:45;22.50;;;12.23;;
25381;SDS011;16307;42.896;20.874;2022-11-20T14:57:32;17.20;;;10.05;;
25381;SDS011;16307;42.896;20.874;2022-11-20T15:00:21;19.90;;;9.15;;
25381;SDS011;16307;42.896;20.874;2022-11-20T15:03:14;18.67;;;11.25;;
25381;SDS011;16307;42.896;20.874;2022-11-20T15:06:02;19.27;;;10.88;;
25381;SDS011;16307;42.896;20.874;2022-11-20T15:08:51;21.15;;;10.82;;
25381;SDS011;16307;42.896;20.874;2022-11-20T15:11:37;17.00;;;10.40;;
25381;SDS011;16307;42.896;20.874;2022-11-20T15:14:24;21.25;;;11.38;;
25381;SDS011;16307;42.896;20.874;2022-11-20T15:17:11;25.05;;;13.50;;
25381;SDS011;16307;42.896;20.874;2022-11-20T15:19:57;29.77;;;16.52;;
25381;SDS011;16307;42.896;20.874;2022-11-20T15:22:43;30.17;;;15.75;;
25381;SDS011;16307;42.896;20.874;2022-11-20T15:25:29;26.17;;;13.95;;
25381;SDS011;16307;42.896;20.874;2022-11-20T15:28:18;26.13;;;12.88;;
25381;SDS011;16307;42.896;20.874;2022-11-20T15:31:04;23.52;;;12.02;;
25381;SDS011;16307;42.896;20.874;2022-11-20T15:33:51;47.10;;;24.55;;
25381;SDS011;16307;42.896;20.874;2022-11-20T15:36:38;28.17;;;15.00;;
25381;SDS011;16307;42.896;20.874;2022-11-20T15:39:27;23.92;;;12.38;;
25381;SDS011;16307;42.896;20.874;2022-11-20T15:42:13;19.52;;;10.73;;
25381;SDS011;16307;42.896;20.874;2022-11-20T15:44:59;15.65;;;7.63;;
25381;SDS011;16307;42.896;20.874;2022-11-20T15:47:45;16.52;;;7.25;;
25381;SDS011;16307;42.896;20.874;2022-11-20T15:50:43;13.15;;;5.80;;
25381;SDS011;16307;42.896;20.874;2022-11-20T15:53:36;13.45;;;6.25;;
25381;SDS011;16307;42.896;20.874;2022-11-20T15:56:23;6.15;;;4.05;;
25381;SDS011;16307;42.896;20.874;2022-11-20T15:59:09;13.95;;;4.43;;
25381;SDS011;16307;42.896;20.874;2022-11-20T16:01:55;11.70;;;4.20;;
25381;SDS011;16307;42.896;20.874;2022-11-20T16:04:41;9.15;;;5.07;;
25381;SDS011;16307;42.896;20.874;2022-11-20T16:07:28;21.23;;;10.20;;
25381;SDS011;16307;42.896;20.874;2022-11-20T16:10:14;15.20;;;7.75;;
25381;SDS011;16307;42.896;20.874;2022-11-20T16:13:00;13.20;;;6.75;;
25381;SDS011;16307;42.896;20.874;2022-11-20T16:16:06;12.98;;;6.40;;
25381;SDS011;16307;42.896;20.874;2022-11-20T16:18:55;17.00;;;6.13;;
25381;SDS011;16307;42.896;20.874;2022-11-20T16:21:41;15.15;;;9.05;;
25381;SDS011;16307;42.896;20.874;2022-11-20T16:24:28;22.75;;;13.50;;
25381;SDS011;16307;42.896;20.874;2022-11-20T16:27:14;20.38;;;11.25;;
25381;SDS011;16307;42.896;20.874;2022-11-20T16:30:00;21.88;;;11.38;;
25381;SDS011;16307;42.896;20.874;2022-11-20T16:32:46;19.27;;;10.75;;
25381;SDS011;16307;42.896;20.874;2022-11-20T16:35:32;23.95;;;12.32;;
25381;SDS011;16307;42.896;20.874;2022-11-20T16:38:18;21.42;;;11.98;;
25381;SDS011;16307;42.896;20.874;2022-11-20T16:41:04;20.67;;;9.80;;
25381;SDS011;16307;42.896;20.874;2022-11-20T16:43:54;21.98;;;10.23;;
25381;SDS011;16307;42.896;20.874;2022-11-20T16:46:42;15.20;;;7.97;;
25381;SDS011;16307;42.896;20.874;2022-11-20T16:49:28;20.88;;;9.98;;
25381;SDS011;16307;42.896;20.874;2022-11-20T16:52:14;17.08;;;10.43;;
25381;SDS011;16307;42.896;20.874;2022-11-20T16:55:00;16.75;;;9.77;;
25381;SDS011;16307;42.896;20.874;2022-11-20T16:57:46;24.67;;;10.65;;
25381;SDS011;16307;42.896;20.874;2022-11-20T17:00:34;29.85;;;14.95;;
25381;SDS011;16307;42.896;20.874;2022-11-20T17:03:21;37.30;;;17.55;;
25381;SDS011;16307;42.896;20.874;2022-11-20T17:06:11;36.50;;;17.92;;
25381;SDS011;16307;42.896;20.874;2022-11-20T17:09:02;29.48;;;15.30;;
25381;SDS011;16307;42.896;20.874;2022-11-20T17:11:49;25.85;;;14.00;;
25381;SDS011;16307;42.896;20.874;2022-11-20T17:14:35;25.85;;;15.77;;
25381;SDS011;16307;42.896;20.874;2022-11-20T17:17:21;30.52;;;17.20;;
25381;SDS011;16307;42.896;20.874;2022-11-20T17:20:08;29.58;;;17.00;;
25381;SDS011;16307;42.896;20.874;2022-11-20T17:22:55;30.73;;;16.33;;
25381;SDS011;16307;42.896;20.874;2022-11-20T17:25:41;25.33;;;14.57;;
25381;SDS011;16307;42.896;20.874;2022-11-20T17:28:27;22.25;;;13.10;;
25381;SDS011;16307;42.896;20.874;2022-11-20T17:31:16;24.15;;;12.73;;
25381;SDS011;16307;42.896;20.874;2022-11-20T17:34:03;20.50;;;11.95;;
25381;SDS011;16307;42.896;20.874;2022-11-20T17:36:50;21.33;;;10.23;;
25381;SDS011;16307;42.896;20.874;2022-11-20T17:39:36;21.13;;;10.32;;
25381;SDS011;16307;42.896;20.874;2022-11-20T17:42:22;23.73;;;11.65;;
25381;SDS011;16307;42.896;20.874;2022-11-20T17:45:11;19.25;;;10.43;;
25381;SDS011;16307;42.896;20.874;2022-11-20T17:47:57;24.30;;;13.35;;
25381;SDS011;16307;42.896;20.874;2022-11-20T17:50:43;20.70;;;10.90;;
25381;SDS011;16307;42.896;20.874;2022-11-20T17:53:32;13.70;;;8.73;;
25381;SDS011;16307;42.896;20.874;2022-11-20T17:56:19;20.83;;;9.57;;
25381;SDS011;16307;42.896;20.874;2022-11-20T17:59:23;17.38;;;9.07;;
25381;SDS011;16307;42.896;20.874;2022-11-20T18:02:09;17.58;;;9.38;;